Missoula, Montana
Current Conditions -  °F | °C
As of 4:53 PM on Wednesday 22 Oct 2014 (Local Time) from KMSO Reporting Station
Overcast Overcast  
Wind Chill: 17°   Ceiling: 6500
Heat Index: 17°   Visibility: 10mi
Dew Point:   Wind: 5mph
Humidity: 37%   Direction: 250°WSW
Pressure: 29.95"   Gusts: NA
Location:  46.87°N, 113.99°W
Report Text: KMSO 222253Z 25004KT 10SM OVC065 17/02 A2995 RMK AO2 SLP144 T01670017
Loading
Personal Weather Stations






























Interactive Weather Map
Tropical Storm Tracking
New forecast layout! Learn more

10-Day Weather Forecast

Advertisements
Track Severe Weather on mobile